Impacts TAF Board
For situational awareness. Not to be used for flight planning purposes.
IDs:

KMSY - New Orleans/Armstron, LA, US

Issued at 1744 UTC 07 Dec 2021
Updated at 1916 UTC 07 Dec 2021
Potential Impact None Slight Moderate High
Time1853Z 07/20Z 07/21Z 07/22Z 07/23Z 08/00Z 08/01Z 08/02Z 08/03Z 08/04Z 08/05Z 08/06Z 08/07Z 08/08Z>>
Type OBS PRVL PRVL PRVL PRVL PRVL PRVL PRVL PRVL PRVL PRVL PRVL PRVL PRVL
VIS 2 6 6 6 6 6 6 6 6 2 2 2 2 0.5
CIG 5 6 6 6 6 6 6 6 6 3 3 3 3 2
Cover OVC OVC OVC OVC OVC OVC OVC OVC OVC OVC OVC OVC OVC OVC
FltCat IFR IFR IFR IFR IFR IFR IFR IFR IFR LIFR LIFR LIFR LIFR LIFR
WX BR BR BR BR BR BR BR BR BR BR BR BR BR FG VCSH
WDir 50 70 70 70 70 70 70 70 70 VRB VRB VRB VRB VRB
WSpd 4 5 5 5 5 5 5 5 5 4 4 4 4 3
WGst -- -- -- -- -- -- -- -- -- -- -- -- -- --
WSHgt -- -- -- -- -- -- -- -- -- -- -- -- -- --
WSDir -- -- -- -- -- -- -- -- -- -- -- -- -- --
WSSpd -- -- -- -- -- -- -- -- -- -- -- -- -- --
Raw TAF
KMSY 071744Z 0718/0824 04007KT 4SM BR OVC004
  FM072000 07005KT 6SM BR OVC006
  FM080400 VRB04KT 2SM BR OVC003
  FM080800 VRB03KT 1/2SM FG VCSH OVC002
  FM081300 VRB03KT 1 1/2SM BR VCSH OVC003
  FM082100 02006KT P6SM BKN010


Raw METAR
KMSY 071853Z 05004KT 2SM BR OVC005 17/15 A3003 RMK AO2 SFC VIS 4 SLP172 T01670150
KMSY 071817Z 07004KT 2SM BR OVC005 17/15 A3004 RMK AO2 SFC VIS 3 T01670150
KMSY 071753Z 08005KT 2SM BR OVC004 17/16 A3006 RMK AO2 SFC VIS 4 SLP181 60000 T01670156 10167 20144 58019
KMSY 071714Z 00000KT 2SM BR OVC004 16/15 A3008 RMK AO2 SFC VIS 4 T01610150
KMSY 071653Z 07004KT 1 1/2SM BR OVC003 16/15 A3009 RMK AO2 SFC VIS 2 1/2 SLP193 T01560150

METAR Board
Radar Display
Forecast Discussion
For situational awareness. Not to be used for flight planning purposes.